createdAt,value
2018-05-26T00:01:02.510Z,17.37
2018-05-26T00:02:12.235Z,17.34
2018-05-26T00:03:22.211Z,17.28
2018-05-26T00:04:31.929Z,17.28
2018-05-26T00:05:41.914Z,17.3
2018-05-26T00:06:51.892Z,17.22
2018-05-26T00:08:01.872Z,17.27
2018-05-26T00:09:11.851Z,17.3
2018-05-26T00:10:21.819Z,17.34
2018-05-26T00:11:31.797Z,17.34
2018-05-26T00:12:41.527Z,17.28
2018-05-26T00:13:51.246Z,17.23
2018-05-26T00:15:00.981Z,17.19
2018-05-26T00:16:10.977Z,17.27
2018-05-26T00:17:20.963Z,17.24
2018-05-26T00:18:30.940Z,17.19
2018-05-26T00:19:40.905Z,17.22
2018-05-26T00:20:50.881Z,17.17
2018-05-26T00:22:00.596Z,17.22
2018-05-26T00:23:10.601Z,17.19
2018-05-26T00:24:20.567Z,17.24
2018-05-26T00:25:30.597Z,17.31
2018-05-26T00:26:40.746Z,17.14
2018-05-26T00:27:50.461Z,17.17
2018-05-26T00:29:00.444Z,17.28
2018-05-26T00:30:10.186Z,17.2
2018-05-26T00:31:20.166Z,17.17
2018-05-26T00:32:29.905Z,17.22
2018-05-26T00:33:39.884Z,17.22
2018-05-26T00:34:49.865Z,17.05
2018-05-26T00:35:59.850Z,17.1
2018-05-26T00:37:09.578Z,17.17
2018-05-26T00:38:19.565Z,17.04
2018-05-26T00:39:29.546Z,17.07
2018-05-26T00:40:39.545Z,17.14
2018-05-26T00:41:49.521Z,17.14
2018-05-26T00:42:59.242Z,17.07
2018-05-26T00:44:08.440Z,17.09
2018-05-26T00:45:18.439Z,17.12
2018-05-26T00:46:28.418Z,17.09
2018-05-26T00:47:38.387Z,17.09
2018-05-26T00:48:48.365Z,17.01
2018-05-26T00:49:58.335Z,16.98
2018-05-26T00:51:08.042Z,16.99
2018-05-26T00:52:17.749Z,16.99
2018-05-26T00:53:27.715Z,16.98
2018-05-26T00:54:37.430Z,16.98
2018-05-26T00:55:47.400Z,16.97
2018-05-26T00:56:57.381Z,16.99
2018-05-26T00:58:07.354Z,17.02
2018-05-26T00:59:17.328Z,17.04
2018-05-26T01:00:27.311Z,16.99
2018-05-26T01:01:37.285Z,17.01
2018-05-26T01:02:47.262Z,16.92
2018-05-26T01:03:56.724Z,16.91
2018-05-26T01:05:06.439Z,16.94
2018-05-26T01:06:16.420Z,16.84
2018-05-26T01:07:26.411Z,16.87
2018-05-26T01:08:36.389Z,16.89
2018-05-26T01:09:46.370Z,16.87
2018-05-26T01:10:55.819Z,16.84
2018-05-26T01:12:05.801Z,16.84
2018-05-26T01:13:15.509Z,16.79
2018-05-26T01:14:25.490Z,16.72
2018-05-26T01:15:35.195Z,16.76
2018-05-26T01:16:44.909Z,16.77
2018-05-26T01:17:54.367Z,16.73
2018-05-26T01:19:04.343Z,16.73
2018-05-26T01:20:14.321Z,16.65
2018-05-26T01:21:24.028Z,16.69
2018-05-26T01:22:33.731Z,16.68
2018-05-26T01:23:43.713Z,16.62
2018-05-26T01:24:53.429Z,16.62
2018-05-26T01:26:03.400Z,16.51
2018-05-26T01:27:13.376Z,16.49
2018-05-26T01:28:23.091Z,16.43
2018-05-26T01:29:33.057Z,16.41
2018-05-26T01:30:43.062Z,16.41
2018-05-26T01:31:53.047Z,16.4
2018-05-26T01:33:02.759Z,16.32
2018-05-26T01:34:12.741Z,16.37
2018-05-26T01:35:22.712Z,16.39
2018-05-26T01:36:32.674Z,16.28
2018-05-26T01:37:42.661Z,16.31
2018-05-26T01:38:52.627Z,16.34
2018-05-26T01:40:02.341Z,16.29
2018-05-26T01:41:12.338Z,16.34
2018-05-26T01:42:22.314Z,16.34
2018-05-26T01:43:32.286Z,16.28
2018-05-26T01:44:42.255Z,16.29
2018-05-26T01:45:51.965Z,16.26
2018-05-26T01:47:01.957Z,16.36
2018-05-26T01:48:11.663Z,16.32
2018-05-26T01:49:21.640Z,16.31
2018-05-26T01:50:31.615Z,16.28
2018-05-26T01:51:41.336Z,16.28
2018-05-26T01:52:51.302Z,16.26
2018-05-26T01:54:01.017Z,16.32
2018-05-26T01:55:10.719Z,16.25
2018-05-26T01:56:20.440Z,16.25
2018-05-26T01:57:30.156Z,16.28
2018-05-26T01:58:39.873Z,16.22
2018-05-26T01:59:49.602Z,16.13
2018-05-26T02:00:59.584Z,16.13
2018-05-26T02:02:09.302Z,16.02
2018-05-26T02:03:19.268Z,16.05
2018-05-26T02:04:29.238Z,15.99
2018-05-26T02:05:39.211Z,15.91
2018-05-26T02:06:49.176Z,15.81
2018-05-26T02:07:58.890Z,15.88
2018-05-26T02:09:08.608Z,15.78
2018-05-26T02:10:18.340Z,15.8
2018-05-26T02:11:28.336Z,15.81
2018-05-26T02:12:37.788Z,15.8
2018-05-26T02:13:47.754Z,15.67
2018-05-26T02:14:57.724Z,15.72
2018-05-26T02:16:07.706Z,15.54
2018-05-26T02:17:17.160Z,15.67
2018-05-26T02:18:26.881Z,15.57
2018-05-26T02:19:36.594Z,15.6
2018-05-26T02:20:46.567Z,15.57
2018-05-26T02:21:56.297Z,15.5
2018-05-26T02:23:06.286Z,15.45
2018-05-26T02:24:16.282Z,15.47
2018-05-26T02:25:26.252Z,15.47
2018-05-26T02:26:36.223Z,15.43
2018-05-26T02:27:45.941Z,15.44
2018-05-26T02:28:55.907Z,15.44
2018-05-26T02:30:05.900Z,15.47
2018-05-26T02:31:15.622Z,15.36
2018-05-26T02:32:25.597Z,15.39
2018-05-26T02:33:35.575Z,15.37
2018-05-26T02:34:45.567Z,15.29
2018-05-26T02:35:55.555Z,15.12
2018-05-26T02:37:05.529Z,15.05
2018-05-26T02:38:15.251Z,15.12
2018-05-26T02:39:24.966Z,15.04
2018-05-26T02:40:34.695Z,14.93
2018-05-26T02:41:44.411Z,14.92
2018-05-26T02:42:54.383Z,14.86
2018-05-26T02:44:04.100Z,14.93
2018-05-26T02:45:13.822Z,14.86
2018-05-26T02:46:23.541Z,14.87
2018-05-26T02:47:33.273Z,14.9
2018-05-26T02:48:43.255Z,14.85
2018-05-26T02:49:53.232Z,14.81
2018-05-26T02:51:03.238Z,14.9
2018-05-26T02:52:13.212Z,14.87
2018-05-26T02:53:23.201Z,14.86
2018-05-26T02:54:32.920Z,14.81
2018-05-26T02:55:42.904Z,14.86
2018-05-26T02:56:52.893Z,14.85
2018-05-26T02:58:02.895Z,14.81
2018-05-26T02:59:12.887Z,14.79
2018-05-26T03:00:22.863Z,14.79
2018-05-26T03:01:32.593Z,14.79
2018-05-26T03:02:42.559Z,14.81
2018-05-26T03:03:52.285Z,14.82
2018-05-26T03:05:02.276Z,14.85
2018-05-26T03:06:12.245Z,14.78
2018-05-26T03:07:22.218Z,14.78
2018-05-26T03:08:32.191Z,14.73
2018-05-26T03:09:41.901Z,14.71
2018-05-26T03:10:51.354Z,14.77
2018-05-26T03:12:01.332Z,14.67
2018-05-26T03:13:11.339Z,14.7
2018-05-26T03:14:21.333Z,14.7
2018-05-26T03:15:31.301Z,14.68
2018-05-26T03:16:41.021Z,14.71
2018-05-26T03:17:51.031Z,14.61
2018-05-26T03:19:00.489Z,14.62
2018-05-26T03:20:10.464Z,14.7
2018-05-26T03:21:20.167Z,14.73
2018-05-26T03:22:29.870Z,14.63
2018-05-26T03:23:39.843Z,14.74
2018-05-26T03:24:49.559Z,14.73
2018-05-26T03:25:59.525Z,14.82
2018-05-26T03:27:09.259Z,14.79
2018-05-26T03:28:18.956Z,14.81
2018-05-26T03:29:28.927Z,14.81
2018-05-26T03:30:38.945Z,14.82
2018-05-26T03:31:48.693Z,14.77
2018-05-26T03:32:58.669Z,14.78
2018-05-26T03:34:08.653Z,14.82
2018-05-26T03:35:18.368Z,14.86
2018-05-26T03:36:28.545Z,14.79
2018-05-26T03:37:38.540Z,14.78
2018-05-26T03:38:48.519Z,14.87
2018-05-26T03:39:57.963Z,14.82
2018-05-26T03:41:07.680Z,14.78
2018-05-26T03:42:17.396Z,14.82
2018-05-26T03:43:27.371Z,14.85
2018-05-26T03:44:36.834Z,14.78
2018-05-26T03:45:46.286Z,14.87
2018-05-26T03:46:56.255Z,14.78
2018-05-26T03:48:06.231Z,14.9
2018-05-26T03:49:15.931Z,14.82
2018-05-26T03:50:25.913Z,14.89
2018-05-26T03:51:35.905Z,14.82
2018-05-26T03:52:45.881Z,14.92
2018-05-26T03:53:55.586Z,14.87
2018-05-26T03:55:05.559Z,14.93
2018-05-26T03:56:15.534Z,14.87
2018-05-26T03:57:25.505Z,14.96
2018-05-26T03:58:35.217Z,14.99
2018-05-26T03:59:44.924Z,14.92
2018-05-26T04:00:54.899Z,14.93
2018-05-26T04:02:04.880Z,15.05
2018-05-26T04:03:14.597Z,15.07
2018-05-26T04:04:24.304Z,15.02
2018-05-26T04:05:34.019Z,15
2018-05-26T04:06:43.740Z,15
2018-05-26T04:07:53.452Z,15.02
2018-05-26T04:09:03.175Z,15.17
2018-05-26T04:10:13.148Z,15.12
2018-05-26T04:11:23.274Z,15.08
2018-05-26T04:12:33.437Z,15.15
2018-05-26T04:13:43.412Z,15.23
2018-05-26T04:14:53.132Z,15.17
2018-05-26T04:16:03.101Z,15.15
2018-05-26T04:17:13.075Z,15.23
2018-05-26T04:18:22.783Z,15.29
2018-05-26T04:19:32.752Z,15.23
2018-05-26T04:20:42.723Z,15.39
2018-05-26T04:21:52.455Z,15.37
2018-05-26T04:23:01.924Z,15.36
2018-05-26T04:24:11.906Z,15.39
2018-05-26T04:25:21.886Z,15.45
2018-05-26T04:26:31.853Z,15.45
2018-05-26T04:27:41.307Z,15.39
2018-05-26T04:28:51.011Z,15.44
2018-05-26T04:30:00.973Z,15.36
2018-05-26T04:31:10.676Z,15.41
2018-05-26T04:32:20.645Z,15.48
2018-05-26T04:33:30.371Z,15.43
2018-05-26T04:34:40.341Z,15.52
2018-05-26T04:35:50.325Z,15.55
2018-05-26T04:37:00.293Z,15.51
2018-05-26T04:38:10.279Z,15.57
2018-05-26T04:39:20.249Z,15.51
2018-05-26T04:40:29.960Z,15.57
2018-05-26T04:41:39.936Z,15.63
2018-05-26T04:42:49.662Z,15.73
2018-05-26T04:43:59.376Z,15.78
2018-05-26T04:45:09.355Z,15.73
2018-05-26T04:46:19.335Z,15.75
2018-05-26T04:47:29.305Z,15.75
2018-05-26T04:48:39.280Z,15.91
2018-05-26T04:49:49.243Z,15.83
2018-05-26T04:50:59.203Z,15.87
2018-05-26T04:52:09.186Z,16.02
2018-05-26T04:53:19.198Z,16.09
2018-05-26T04:54:29.189Z,15.98
2018-05-26T04:55:39.155Z,16.03
2018-05-26T04:56:49.148Z,16.03
2018-05-26T04:57:59.118Z,16.03
2018-05-26T04:59:09.106Z,16.1
2018-05-26T05:00:18.565Z,16.22
2018-05-26T05:01:28.273Z,16.22
2018-05-26T05:02:38.259Z,16.22
2018-05-26T05:03:47.986Z,16.22
2018-05-26T05:04:57.945Z,16.24
2018-05-26T05:06:07.922Z,16.29
2018-05-26T05:07:17.893Z,16.36
2018-05-26T05:08:27.594Z,16.34
2018-05-26T05:09:37.567Z,16.34
2018-05-26T05:10:47.557Z,16.41
2018-05-26T05:11:57.535Z,16.43
2018-05-26T05:13:06.996Z,16.44
2018-05-26T05:14:16.965Z,16.49
2018-05-26T05:15:26.933Z,16.5
2018-05-26T05:16:36.672Z,16.41
2018-05-26T05:17:46.647Z,16.44
2018-05-26T05:18:56.622Z,16.5
2018-05-26T05:20:06.350Z,16.54
2018-05-26T05:21:15.804Z,16.61
2018-05-26T05:22:25.514Z,16.55
2018-05-26T05:23:35.500Z,16.68
2018-05-26T05:24:45.478Z,16.65
2018-05-26T05:25:55.211Z,16.69
2018-05-26T05:27:05.193Z,16.66
2018-05-26T05:28:15.168Z,16.76
2018-05-26T05:29:25.150Z,16.79
2018-05-26T05:30:35.124Z,16.86
2018-05-26T05:31:45.096Z,16.92
2018-05-26T05:32:55.075Z,16.92
2018-05-26T05:34:04.528Z,16.97
2018-05-26T05:35:14.511Z,16.99
2018-05-26T05:36:24.486Z,16.97
2018-05-26T05:37:33.791Z,17.1
2018-05-26T05:38:44.085Z,17.12
2018-05-26T05:39:54.047Z,17.16
2018-05-26T05:41:04.067Z,17.13
2018-05-26T05:42:13.519Z,17.2
2018-05-26T05:43:23.230Z,17.27
2018-05-26T05:44:32.942Z,17.31
2018-05-26T05:45:42.923Z,17.35
2018-05-26T05:46:52.897Z,17.39
2018-05-26T05:48:02.884Z,17.47
2018-05-26T05:49:12.853Z,17.5
2018-05-26T05:50:22.819Z,17.53
2018-05-26T05:51:32.794Z,17.71
2018-05-26T05:52:42.772Z,17.65
2018-05-26T05:53:52.738Z,17.69
2018-05-26T05:55:02.455Z,17.65
2018-05-26T05:56:12.210Z,17.73
2018-05-26T05:57:22.294Z,17.78
2018-05-26T05:58:32.263Z,17.87
2018-05-26T05:59:41.987Z,17.87
2018-05-26T06:00:51.964Z,17.94
2018-05-26T06:02:01.419Z,17.95
2018-05-26T06:03:11.404Z,18.03
2018-05-26T06:04:20.869Z,18.12
2018-05-26T06:05:30.606Z,18.19
2018-05-26T06:06:40.579Z,18.15
2018-05-26T06:07:50.546Z,18.21
2018-05-26T06:09:00.264Z,18.27
2018-05-26T06:10:09.726Z,18.33
2018-05-26T06:11:19.697Z,18.34
2018-05-26T06:12:29.410Z,18.36
2018-05-26T06:13:39.133Z,18.48
2018-05-26T06:14:48.891Z,18.48
2018-05-26T06:15:58.986Z,18.55
2018-05-26T06:17:08.948Z,18.57
2018-05-26T06:18:18.678Z,18.64
2018-05-26T06:19:28.650Z,18.76
2018-05-26T06:20:38.634Z,18.73
2018-05-26T06:21:48.614Z,18.86
2018-05-26T06:22:58.336Z,18.86
2018-05-26T06:24:08.360Z,18.94
2018-05-26T06:25:18.352Z,19
2018-05-26T06:26:28.474Z,19.05
2018-05-26T06:27:38.603Z,19.11
2018-05-26T06:28:48.060Z,19.15
2018-05-26T06:29:58.028Z,19.2
2018-05-26T06:31:08.031Z,19.23
2018-05-26T06:32:17.743Z,19.3
2018-05-26T06:33:27.734Z,19.39
2018-05-26T06:34:37.709Z,19.39
2018-05-26T06:35:47.693Z,19.48
2018-05-26T06:36:57.779Z,19.55
2018-05-26T06:38:07.753Z,19.48
2018-05-26T06:39:17.718Z,19.59
2018-05-26T06:40:27.425Z,19.71
2018-05-26T06:41:36.882Z,19.7
2018-05-26T06:42:46.872Z,19.72
2018-05-26T06:43:56.851Z,19.81
2018-05-26T06:45:06.841Z,19.82
2018-05-26T06:46:16.863Z,19.89
2018-05-26T06:47:26.856Z,19.93
2018-05-26T06:48:36.865Z,20
2018-05-26T06:49:46.569Z,20.11
2018-05-26T06:50:56.299Z,20.14
2018-05-26T06:52:06.304Z,20.24
2018-05-26T06:53:16.266Z,20.24
2018-05-26T06:54:26.011Z,20.19
2018-05-26T06:55:35.999Z,20.33
2018-05-26T06:56:45.720Z,20.36
2018-05-26T06:57:55.709Z,20.34
2018-05-26T06:59:05.690Z,20.32
2018-05-26T07:00:15.816Z,20.32
2018-05-26T07:01:25.972Z,20.44
2018-05-26T07:02:35.693Z,20.48
2018-05-26T07:03:45.675Z,20.58
2018-05-26T07:04:55.669Z,20.63
2018-05-26T07:06:05.641Z,20.66
2018-05-26T07:07:15.104Z,20.73
2018-05-26T07:08:25.104Z,20.8
2018-05-26T07:09:35.071Z,20.88
2018-05-26T07:10:45.056Z,20.86
2018-05-26T07:11:54.527Z,20.95
2018-05-26T07:13:04.530Z,20.88
2018-05-26T07:14:14.518Z,21.07
2018-05-26T07:15:24.539Z,21.11
2018-05-26T07:16:34.530Z,21.13
2018-05-26T07:17:44.552Z,21.11
2018-05-26T07:18:54.277Z,21.13
2018-05-26T07:20:03.732Z,21.15
2018-05-26T07:21:13.708Z,21.23
2018-05-26T07:22:23.744Z,21.28
2018-05-26T07:23:33.741Z,21.33
2018-05-26T07:24:43.865Z,21.37
2018-05-26T07:25:53.737Z,21.44
2018-05-26T07:27:03.724Z,21.43
2018-05-26T07:28:13.779Z,21.5
2018-05-26T07:29:23.765Z,21.56
2018-05-26T07:30:33.735Z,21.63
2018-05-26T07:31:43.453Z,21.69
2018-05-26T07:32:53.439Z,21.83
2018-05-26T07:34:03.161Z,21.83
2018-05-26T07:35:13.159Z,21.8
2018-05-26T07:36:23.164Z,22.01
2018-05-26T07:37:32.905Z,22.03
2018-05-26T07:38:42.895Z,22.12
2018-05-26T07:39:52.875Z,22.18
2018-05-26T07:41:02.607Z,22.18
2018-05-26T07:42:12.322Z,22.18
2018-05-26T07:43:22.290Z,22.18
2018-05-26T07:44:32.290Z,22.28
2018-05-26T07:45:42.271Z,22.31
2018-05-26T07:46:51.994Z,22.41
2018-05-26T07:48:01.715Z,22.46
2018-05-26T07:49:11.701Z,22.46
2018-05-26T07:50:21.670Z,22.56
2018-05-26T07:51:31.652Z,22.59
2018-05-26T07:52:41.391Z,22.63
2018-05-26T07:53:51.427Z,22.8
2018-05-26T07:55:01.198Z,22.77
2018-05-26T07:56:10.919Z,22.74
2018-05-26T07:57:20.903Z,22.81
2018-05-26T07:58:31.188Z,23.01
2018-05-26T07:59:41.017Z,22.95
2018-05-26T08:00:51.059Z,23.07
2018-05-26T08:02:01.175Z,23.01
2018-05-26T08:03:10.885Z,23.13
2018-05-26T08:04:20.604Z,23.21
2018-05-26T08:05:30.580Z,23.33
2018-05-26T08:06:40.632Z,23.4
2018-05-26T08:07:50.615Z,23.25
2018-05-26T08:09:00.329Z,23.32
2018-05-26T08:10:10.325Z,23.18
2018-05-26T08:11:20.297Z,23.16
2018-05-26T08:12:30.275Z,23.32
2018-05-26T08:13:40.251Z,23.33
2018-05-26T08:14:49.969Z,23.36
2018-05-26T08:15:59.941Z,23.42
2018-05-26T08:17:10.137Z,23.42
2018-05-26T08:18:19.858Z,23.54
2018-05-26T08:19:29.837Z,23.56
2018-05-26T08:20:39.831Z,23.49
2018-05-26T08:21:49.561Z,23.45
2018-05-26T08:22:59.540Z,23.56
2018-05-26T08:24:09.266Z,23.58
2018-05-26T08:25:19.268Z,23.55
2018-05-26T08:26:29.245Z,23.73
2018-05-26T08:27:39.248Z,23.86
2018-05-26T08:28:48.956Z,23.92
2018-05-26T08:29:58.678Z,24.07
2018-05-26T08:31:08.680Z,24.24
2018-05-26T08:32:18.674Z,24.26
2018-05-26T08:33:28.667Z,24.37
2018-05-26T08:34:38.644Z,24.66
2018-05-26T08:35:48.394Z,24.82
2018-05-26T08:36:58.405Z,25.12
2018-05-26T08:38:08.123Z,25.36
2018-05-26T08:39:18.118Z,25.78
2018-05-26T08:40:27.853Z,26.19
2018-05-26T08:41:37.861Z,26.44
2018-05-26T08:42:47.851Z,26.68
2018-05-26T08:43:57.860Z,27.04
2018-05-26T08:45:07.844Z,27.37
2018-05-26T08:46:17.308Z,27.71
2018-05-26T08:47:27.303Z,27.76
2018-05-26T08:48:37.284Z,28.08
2018-05-26T08:49:47.267Z,28.34
2018-05-26T08:50:57.257Z,28.49
2018-05-26T08:52:07.251Z,28.33
2018-05-26T08:53:17.250Z,28.22
2018-05-26T08:54:26.968Z,28.37
2018-05-26T08:55:36.697Z,28.6
2018-05-26T08:56:46.423Z,28.86
2018-05-26T08:57:56.145Z,29.3
2018-05-26T08:59:05.861Z,29.59
2018-05-26T09:00:15.861Z,29.76
2018-05-26T09:01:25.854Z,29.9
2018-05-26T09:02:35.605Z,30.14
2018-05-26T09:03:45.337Z,30.46
2018-05-26T09:04:54.827Z,30.67
2018-05-26T09:06:04.817Z,30.74
2018-05-26T09:07:14.812Z,30.85
2018-05-26T09:08:24.550Z,31
2018-05-26T09:09:34.542Z,31.14
2018-05-26T09:10:44.542Z,30.81
2018-05-26T09:11:54.025Z,30.56
2018-05-26T09:13:04.023Z,30.49
2018-05-26T09:14:14.004Z,30.39
2018-05-26T09:15:23.736Z,30.01
2018-05-26T09:16:33.757Z,29.89
2018-05-26T09:17:43.757Z,30.14
2018-05-26T09:18:53.810Z,30.51
2018-05-26T09:20:03.532Z,30.7
2018-05-26T09:21:13.531Z,31
2018-05-26T09:22:23.034Z,31.17
2018-05-26T09:23:33.043Z,31.52
2018-05-26T09:24:43.050Z,31.81
2018-05-26T09:25:52.793Z,32.08
2018-05-26T09:27:02.818Z,32.08
2018-05-26T09:28:12.816Z,32.27
2018-05-26T09:29:22.808Z,32.38
2018-05-26T09:30:32.550Z,32.42
2018-05-26T09:31:42.555Z,32.68
2018-05-26T09:32:52.028Z,32.79
2018-05-26T09:34:02.032Z,32.79
2018-05-26T09:35:12.020Z,32.75
2018-05-26T09:36:22.017Z,32.64
2018-05-26T09:37:32.009Z,32.75
2018-05-26T09:38:42.007Z,32.71
2018-05-26T09:39:51.737Z,32.82
2018-05-26T09:41:01.734Z,32.71
2018-05-26T09:42:11.744Z,32.79
2018-05-26T09:43:21.746Z,32.88
2018-05-26T09:44:31.744Z,33.15
2018-05-26T09:45:41.751Z,33.4
2018-05-26T09:46:51.740Z,33.48
2018-05-26T09:48:01.775Z,33.72
2018-05-26T09:49:11.519Z,33.79
2018-05-26T09:50:21.539Z,33.79
2018-05-26T09:51:31.528Z,33.48
2018-05-26T09:52:41.266Z,33.29
2018-05-26T09:53:50.994Z,32.83
2018-05-26T09:55:00.740Z,32.51
2018-05-26T09:56:10.594Z,32.41
2018-05-26T09:57:20.588Z,32.54
2018-05-26T09:58:30.331Z,32.81
2018-05-26T09:59:40.068Z,33.28
2018-05-26T10:00:49.543Z,33.42
2018-05-26T10:01:59.026Z,32.75
2018-05-26T10:03:08.762Z,32.51
2018-05-26T10:04:18.615Z,32.78
2018-05-26T10:05:28.947Z,32.29
2018-05-26T10:06:38.925Z,31.66
2018-05-26T10:07:48.930Z,31.74
2018-05-26T10:08:58.928Z,31.81
2018-05-26T10:10:08.674Z,31.35
2018-05-26T10:11:18.675Z,30.78
2018-05-26T10:12:28.436Z,30.86
2018-05-26T10:13:38.372Z,30.77
2018-05-26T10:14:48.396Z,30.7
2018-05-26T10:15:58.383Z,30.8
2018-05-26T10:17:08.369Z,31.18
2018-05-26T10:18:18.379Z,31.41
2018-05-26T10:19:28.390Z,31.25
2018-05-26T10:20:38.131Z,31.51
2018-05-26T10:21:47.843Z,31.85
2018-05-26T10:22:57.838Z,32.19
2018-05-26T10:24:07.827Z,32.66
2018-05-26T10:25:17.848Z,33.09
2018-05-26T10:26:27.841Z,33.58
2018-05-26T10:27:37.829Z,33.58
2018-05-26T10:28:47.830Z,33.88
2018-05-26T10:29:57.824Z,34.14
2018-05-26T10:31:08.008Z,34.33
2018-05-26T10:32:18.103Z,34.58
2018-05-26T10:33:28.209Z,34.94
2018-05-26T10:34:38.213Z,35.38
2018-05-26T10:35:47.962Z,35.56
2018-05-26T10:36:57.960Z,35.59
2018-05-26T10:38:07.808Z,35.88
2018-05-26T10:39:17.694Z,35.98
2018-05-26T10:40:27.472Z,35.96
2018-05-26T10:41:36.940Z,35.94
2018-05-26T10:42:46.931Z,36.11
2018-05-26T10:43:56.688Z,36.26
2018-05-26T10:45:06.690Z,36.51
2018-05-26T10:46:16.682Z,36.75
2018-05-26T10:47:26.685Z,36.44
2018-05-26T10:48:36.435Z,36.47
2018-05-26T10:49:46.452Z,36
2018-05-26T10:50:56.530Z,35.87
2018-05-26T10:52:06.268Z,35.37
2018-05-26T10:53:16.041Z,35.18
2018-05-26T10:54:26.049Z,35.22
2018-05-26T10:55:35.787Z,35
2018-05-26T10:56:45.777Z,34.73
2018-05-26T10:57:55.797Z,34.33
2018-05-26T10:59:05.561Z,33.76
2018-05-26T11:00:15.304Z,34.09
2018-05-26T11:01:25.304Z,34.46
2018-05-26T11:02:35.318Z,34.81
2018-05-26T11:03:45.073Z,35.25
2018-05-26T11:04:54.818Z,35.6
2018-05-26T11:06:04.575Z,36
2018-05-26T11:07:14.308Z,35.78
2018-05-26T11:08:24.047Z,35.78
2018-05-26T11:09:34.056Z,35.87
2018-05-26T11:10:44.043Z,35.72
2018-05-26T11:11:53.768Z,35.39
2018-05-26T11:13:03.758Z,35.41
2018-05-26T11:14:13.761Z,35.25
2018-05-26T11:15:23.520Z,34.7
2018-05-26T11:16:33.265Z,34.37
2018-05-26T11:17:43.333Z,34.09
2018-05-26T11:18:53.557Z,33.58
2018-05-26T11:20:03.679Z,33.15
2018-05-26T11:21:13.667Z,32.95
2018-05-26T11:22:23.660Z,32.79
2018-05-26T11:23:33.509Z,32.45
2018-05-26T11:24:43.713Z,32
2018-05-26T11:25:53.951Z,32.11
2018-05-26T11:27:03.989Z,32.02
2018-05-26T11:28:13.733Z,32.05
2018-05-26T11:29:23.857Z,32.05
2018-05-26T11:30:33.949Z,31.9
2018-05-26T11:31:43.978Z,32.23
2018-05-26T11:32:53.976Z,32.29
2018-05-26T11:34:03.975Z,32.08
2018-05-26T11:35:13.979Z,31.9
2018-05-26T11:36:23.712Z,32.05
2018-05-26T11:37:33.500Z,32.26
2018-05-26T11:38:43.488Z,32.59
2018-05-26T11:39:53.239Z,32.95
2018-05-26T11:41:02.975Z,33.4
2018-05-26T11:42:12.986Z,33.88
2018-05-26T11:43:22.979Z,34.4
2018-05-26T11:44:32.972Z,34.79
2018-05-26T11:45:42.971Z,35.18
2018-05-26T11:46:52.976Z,35.25
2018-05-26T11:48:02.972Z,34.94
2018-05-26T11:49:12.954Z,34.69
2018-05-26T11:50:22.955Z,34.79
2018-05-26T11:51:32.421Z,35.03
2018-05-26T11:52:42.438Z,35.19
2018-05-26T11:53:52.435Z,35.64
2018-05-26T11:55:02.443Z,35.61
2018-05-26T11:56:12.204Z,34.85
2018-05-26T11:57:21.953Z,34.7
2018-05-26T11:58:31.962Z,34.31
2018-05-26T11:59:41.952Z,33.57
2018-05-26T12:00:51.943Z,33.81
2018-05-26T12:02:02.018Z,34.16
2018-05-26T12:03:12.117Z,34.7
2018-05-26T12:04:22.123Z,34.37
2018-05-26T12:05:31.595Z,34.71
2018-05-26T12:06:41.591Z,35.3
2018-05-26T12:07:51.583Z,35.78
2018-05-26T12:09:01.314Z,36.05
2018-05-26T12:10:11.308Z,36.31
2018-05-26T12:11:21.310Z,36.87
2018-05-26T12:12:31.306Z,37.06
2018-05-26T12:13:41.309Z,37.37
2018-05-26T12:14:51.292Z,37.6
2018-05-26T12:16:00.779Z,37.43
2018-05-26T12:17:10.253Z,37.44
2018-05-26T12:18:20.244Z,37.82
2018-05-26T12:19:30.238Z,38.27
2018-05-26T12:20:39.989Z,38.53
2018-05-26T12:21:49.981Z,38.46
2018-05-26T12:23:00.026Z,37.66
2018-05-26T12:24:09.757Z,36.26
2018-05-26T12:25:19.506Z,35.79
2018-05-26T12:26:29.581Z,35.9
2018-05-26T12:27:39.570Z,35.19
2018-05-26T12:28:49.562Z,35.59
2018-05-26T12:29:59.565Z,36.06
2018-05-26T12:31:09.320Z,36.62
2018-05-26T12:32:19.324Z,37.11
2018-05-26T12:33:28.808Z,37.54
2018-05-26T12:34:38.793Z,38.19
2018-05-26T12:35:48.541Z,38.66
2018-05-26T12:36:58.550Z,39.41
2018-05-26T12:38:08.282Z,39.95
2018-05-26T12:39:18.013Z,39.57
2018-05-26T12:40:28.010Z,39.17
2018-05-26T12:41:38.015Z,39.14
2018-05-26T12:42:48.023Z,39.08
2018-05-26T12:43:57.763Z,39.07
2018-05-26T12:45:07.811Z,38.6
2018-05-26T12:46:17.839Z,38.58
2018-05-26T12:47:27.834Z,38.62
2018-05-26T12:48:37.847Z,38.73
2018-05-26T12:49:47.854Z,38.76
2018-05-26T12:50:57.855Z,37.82
2018-05-26T12:52:07.627Z,36.62
2018-05-26T12:53:17.545Z,35.81
2018-05-26T12:54:27.534Z,35.81
2018-05-26T12:55:37.536Z,35.75
2018-05-26T12:56:47.293Z,35.49
2018-05-26T12:57:57.038Z,34.78
2018-05-26T12:59:07.058Z,34.48
2018-05-26T13:00:17.061Z,33.72
2018-05-26T13:01:27.057Z,33.55
2018-05-26T13:02:37.041Z,33.32
2018-05-26T13:03:47.023Z,32.38
2018-05-26T13:04:56.782Z,31.5
2018-05-26T13:06:06.536Z,31.13
2018-05-26T13:07:16.700Z,30.76
2018-05-26T13:08:26.440Z,30.73
2018-05-26T13:09:36.180Z,30.63
2018-05-26T13:10:46.214Z,30.16
2018-05-26T13:11:56.201Z,29.89
2018-05-26T13:13:06.209Z,30.23
2018-05-26T13:14:15.939Z,30.43
2018-05-26T13:15:25.659Z,30.29
2018-05-26T13:16:35.136Z,30.03
2018-05-26T13:17:45.122Z,29.94
2018-05-26T13:18:55.124Z,29.96
2018-05-26T13:20:04.852Z,29.92
2018-05-26T13:21:14.856Z,30.1
2018-05-26T13:22:24.855Z,30.48
2018-05-26T13:23:34.846Z,30.55
2018-05-26T13:24:44.636Z,30.63
2018-05-26T13:25:54.360Z,30.16
2018-05-26T13:27:04.350Z,30.16
2018-05-26T13:28:14.328Z,30.16
2018-05-26T13:29:24.052Z,29.95
2018-05-26T13:30:33.787Z,29.64
2018-05-26T13:31:43.515Z,29.43
2018-05-26T13:32:53.257Z,29.4
2018-05-26T13:34:03.247Z,29.24
2018-05-26T13:35:13.271Z,29.28
2018-05-26T13:36:23.128Z,29.18
2018-05-26T13:37:32.876Z,29.21
2018-05-26T13:38:42.857Z,29.18
2018-05-26T13:39:52.604Z,29.53
2018-05-26T13:41:02.604Z,29.84
2018-05-26T13:42:12.334Z,30.16
2018-05-26T13:43:22.058Z,30.43
2018-05-26T13:44:32.054Z,30.78
2018-05-26T13:45:42.026Z,30.71
2018-05-26T13:46:51.491Z,31
2018-05-26T13:48:01.501Z,31.11
2018-05-26T13:49:11.345Z,31.13
2018-05-26T13:50:21.179Z,31.07
2018-05-26T13:51:30.751Z,31.2
2018-05-26T13:52:40.700Z,31.14
2018-05-26T13:53:50.952Z,30.99
2018-05-26T13:55:01.343Z,31.17
2018-05-26T13:56:11.308Z,31.14
2018-05-26T13:57:21.512Z,30.99
2018-05-26T13:58:31.495Z,31.02
2018-05-26T13:59:41.492Z,31.05
2018-05-26T14:00:51.221Z,30.77
2018-05-26T14:02:00.965Z,30.55
2018-05-26T14:03:10.966Z,30.52
2018-05-26T14:04:20.695Z,30.65
2018-05-26T14:05:30.697Z,30.93
2018-05-26T14:06:40.462Z,31.11
2018-05-26T14:07:50.184Z,31.41
2018-05-26T14:09:00.164Z,31.44
2018-05-26T14:10:10.172Z,30.99
2018-05-26T14:11:19.911Z,30.59
2018-05-26T14:12:29.895Z,30.27
2018-05-26T14:13:39.613Z,29.99
2018-05-26T14:14:49.072Z,29.96
2018-05-26T14:15:59.079Z,29.99
2018-05-26T14:17:08.811Z,29.87
2018-05-26T14:18:18.898Z,29.81
2018-05-26T14:19:28.876Z,29.79
2018-05-26T14:20:38.369Z,29.92
2018-05-26T14:21:48.363Z,29.81
2018-05-26T14:22:58.147Z,30.13
2018-05-26T14:24:08.186Z,30.36
2018-05-26T14:25:18.176Z,30.43
2018-05-26T14:26:27.897Z,30.23
2018-05-26T14:27:37.633Z,30.16
2018-05-26T14:28:47.623Z,29.77
2018-05-26T14:29:57.339Z,29.65
2018-05-26T14:31:07.317Z,29.4
2018-05-26T14:32:17.057Z,29.03
2018-05-26T14:33:26.771Z,28.9
2018-05-26T14:34:36.758Z,28.56
2018-05-26T14:35:46.745Z,28.35
2018-05-26T14:36:56.741Z,28.23
2018-05-26T14:38:06.738Z,28.16
2018-05-26T14:39:16.745Z,27.95
2018-05-26T14:40:26.755Z,27.86
2018-05-26T14:41:36.776Z,27.85
2018-05-26T14:42:46.517Z,27.75
2018-05-26T14:43:56.529Z,27.83
2018-05-26T14:45:06.561Z,28.12
2018-05-26T14:46:16.298Z,28.28
2018-05-26T14:47:26.024Z,28.49
2018-05-26T14:48:36.007Z,28.57
2018-05-26T14:49:46.060Z,28.4
2018-05-26T14:50:56.191Z,28.55
2018-05-26T14:52:06.174Z,28.47
2018-05-26T14:53:15.394Z,28.49
2018-05-26T14:54:25.121Z,28.52
2018-05-26T14:55:34.588Z,28.33
2018-05-26T14:56:44.077Z,28.1
2018-05-26T14:57:54.070Z,28.01
2018-05-26T14:59:04.070Z,27.93
2018-05-26T15:00:14.054Z,27.94
2018-05-26T15:01:23.801Z,27.98
2018-05-26T15:02:33.258Z,27.95
2018-05-26T15:03:43.231Z,27.9